Time;durP1;ratioP1;P1;durP2;ratioP2;P2;SDS_P1;SDS_P2;PMS_P1;PMS_P2;Temp;Humidity;BMP_temperature;BMP_pressure;BME280_temperature;BME280_humidity;BME280_pressure;Samples;Min_cycle;Max_cycle;Signal;HPM_P1;HPM_P2
2023/07/19 00:02:09;;;;;;;2.90;1.40;;;;;;;23.10;40.41;101387.84;16120149;19;131780;-46
2023/07/19 00:07:31;;;;;;;3.65;1.40;;;;;;;23.10;40.46;101381.44;16120012;19;129920;-45
2023/07/19 00:12:53;;;;;;;4.15;1.33;;;;;;;23.09;40.37;101375.00;16122657;19;129768;-45
2023/07/19 00:18:17;;;;;;;1.52;1.13;;;;;;;23.09;40.45;101375.00;16120645;19;129137;-42
2023/07/19 00:23:39;;;;;;;2.95;1.45;;;;;;;23.07;40.52;101370.81;16117542;19;130250;-44
2023/07/19 00:29:01;;;;;;;2.58;1.60;;;;;;;23.07;40.28;101359.63;16116716;19;129867;-44
2023/07/19 00:34:23;;;;;;;4.30;1.25;;;;;;;23.05;40.54;101346.78;16119326;19;130372;-44
2023/07/19 00:39:45;;;;;;;2.25;1.30;;;;;;;23.05;40.53;101337.59;16116581;19;131748;-44
2023/07/19 00:45:08;;;;;;;2.53;1.13;;;;;;;23.04;40.50;101347.06;16115864;19;131814;-45
2023/07/19 00:50:30;;;;;;;3.90;1.50;;;;;;;23.02;40.67;101336.16;16114008;19;129565;-44
2023/07/19 00:55:53;;;;;;;3.38;1.25;;;;;;;23.03;40.71;101335.06;16117703;19;130665;-46
2023/07/19 01:01:15;;;;;;;2.85;1.38;;;;;;;23.02;40.47;101336.16;16110728;19;129704;-43
2023/07/19 01:06:38;;;;;;;1.67;1.13;;;;;;;23.01;40.90;101334.50;16109724;19;133097;-48
2023/07/19 01:12:00;;;;;;;1.98;1.00;;;;;;;23.01;40.48;101342.00;16108478;19;130896;-46
2023/07/19 01:17:22;;;;;;;3.35;1.10;;;;;;;23.01;40.69;101333.63;16117320;19;130986;-44
2023/07/19 01:22:46;;;;;;;3.00;1.50;;;;;;;23.00;40.60;101332.81;16113637;19;129681;-46
2023/07/19 01:28:08;;;;;;;3.58;1.02;;;;;;;23.00;40.65;101320.78;16117428;19;130187;-47
2023/07/19 01:33:30;;;;;;;2.08;1.17;;;;;;;22.98;40.70;101323.88;16113251;19;131642;-43
2023/07/19 01:38:54;;;;;;;2.50;1.30;;;;;;;22.98;40.73;101320.22;16114444;19;129312;-42
2023/07/19 01:44:17;;;;;;;2.00;1.10;;;;;;;22.97;40.34;101308.22;16114733;19;130156;-47
2023/07/19 01:49:42;;;;;;;2.65;1.15;;;;;;;22.97;40.85;101316.59;16112760;19;130659;-42
2023/07/19 01:55:04;;;;;;;2.58;1.00;;;;;;;22.96;40.51;101308.47;16110280;19;129336;-45
2023/07/19 02:00:26;;;;;;;1.80;0.95;;;;;;;22.96;40.66;101308.47;16110740;19;130562;-47
2023/07/19 02:06:00;;;;;;;1.80;1.08;;;;;;;22.96;40.83;101298.19;16112851;19;129636;-43
2023/07/19 02:11:22;;;;;;;2.05;1.17;;;;;;;22.93;40.55;101304.28;16112007;19;130938;-45
2023/07/19 02:16:45;;;;;;;1.70;0.80;;;;;;;22.94;40.83;101294.81;16108061;19;130305;-51
2023/07/19 02:22:07;;;;;;;2.67;1.00;;;;;;;22.92;41.03;101291.44;16107866;19;132204;-46
2023/07/19 02:27:29;;;;;;;1.50;0.90;;;;;;;22.92;40.84;101294.22;16108492;19;130607;-44
2023/07/19 02:32:51;;;;;;;1.25;0.90;;;;;;;22.91;40.49;101284.16;16114766;19;130758;-44
2023/07/19 02:38:13;;;;;;;3.42;1.15;;;;;;;22.91;40.74;101289.75;16109853;19;130613;-45
2023/07/19 02:43:35;;;;;;;5.00;1.30;;;;;;;22.91;40.88;101286.13;16109420;19;129862;-45
2023/07/19 02:48:57;;;;;;;2.38;1.20;;;;;;;22.91;40.51;101286.13;16109634;19;131003;-44
2023/07/19 02:54:19;;;;;;;1.90;1.00;;;;;;;22.88;40.50;101285.53;16107644;19;130689;-44
2023/07/19 02:59:41;;;;;;;2.08;1.05;;;;;;;22.88;40.53;101282.75;16106068;19;129213;-44
2023/07/19 03:05:04;;;;;;;3.90;1.20;;;;;;;22.88;40.63;101290.28;16112490;19;130194;-45
2023/07/19 03:10:25;;;;;;;1.77;0.70;;;;;;;22.87;40.92;101294.16;16106263;19;129397;-45
2023/07/19 03:15:48;;;;;;;2.63;0.98;;;;;;;22.87;40.64;101294.16;16107157;19;132818;-47
2023/07/19 03:21:10;;;;;;;1.90;1.30;;;;;;;22.86;40.80;101298.06;16108188;19;130205;-42
2023/07/19 03:26:32;;;;;;;2.75;1.02;;;;;;;22.86;40.90;101300.84;16104807;19;132501;-42
2023/07/19 03:31:54;;;;;;;2.40;1.00;;;;;;;22.85;41.11;101301.97;16111296;19;129771;-43
2023/07/19 03:37:16;;;;;;;1.80;1.00;;;;;;;22.84;40.58;101303.06;16111827;19;129924;-43
2023/07/19 03:42:38;;;;;;;2.40;1.10;;;;;;;22.84;40.91;101314.22;16107119;19;130160;-46
2023/07/19 03:48:00;;;;;;;2.13;0.80;;;;;;;22.83;40.71;101309.75;16105390;19;129594;-47
2023/07/19 03:53:22;;;;;;;3.33;1.00;;;;;;;22.82;40.83;101311.72;16107281;19;131092;-45
2023/07/19 03:58:48;;;;;;;1.75;0.90;;;;;;;22.83;40.85;101312.53;16105155;19;129828;-47
2023/07/19 04:04:10;;;;;;;1.60;0.70;;;;;;;22.82;41.34;101319.22;16103724;19;129334;-45
2023/07/19 04:09:33;;;;;;;1.02;0.90;;;;;;;22.81;40.95;101317.53;16105984;19;134745;-42
2023/07/19 04:14:56;;;;;;;1.70;0.80;;;;;;;22.80;40.91;101321.44;16105530;19;131557;-47
2023/07/19 04:20:18;;;;;;;1.52;1.05;;;;;;;22.80;40.73;101321.44;16099214;19;130395;-46
2023/07/19 04:25:40;;;;;;;2.65;1.00;;;;;;;22.79;40.82;101317.81;16111226;19;130443;-45
2023/07/19 04:31:02;;;;;;;2.15;0.88;;;;;;;22.79;41.23;101325.31;16120487;19;130089;-45
2023/07/19 04:36:24;;;;;;;2.40;0.85;;;;;;;22.79;40.88;101336.47;16116964;19;129733;-44
2023/07/19 04:41:46;;;;;;;1.20;0.77;;;;;;;22.77;41.12;101333.97;16116616;19;130568;-43
2023/07/19 04:47:09;;;;;;;2.33;0.60;;;;;;;22.78;41.03;101332.88;16118065;19;130699;-46
2023/07/19 04:52:31;;;;;;;2.72;0.88;;;;;;;22.77;41.10;101325.59;16117390;19;129944;-44
2023/07/19 04:57:52;;;;;;;0.43;0.40;;;;;;;22.77;41.17;101324.78;16115400;19;133860;-43
2023/07/19 05:03:14;;;;;;;1.08;0.70;;;;;;;22.77;40.80;101327.56;16117888;19;131001;-48
2023/07/19 05:08:37;;;;;;;0.60;0.50;;;;;;;22.76;41.32;101342.63;16114687;19;130393;-45
2023/07/19 05:13:59;;;;;;;1.13;0.70;;;;;;;22.76;41.31;101331.47;16116463;19;130083;-44
2023/07/19 05:19:21;;;;;;;1.52;0.73;;;;;;;22.75;41.21;101338.97;16116809;19;130513;-45
2023/07/19 05:24:43;;;;;;;2.22;0.70;;;;;;;22.74;40.94;101334.50;16115906;19;131655;-51
2023/07/19 05:30:06;;;;;;;0.73;0.70;;;;;;;22.74;41.04;101331.69;16111228;19;129495;-45
2023/07/19 05:35:31;;;;;;;1.08;0.52;;;;;;;22.74;41.27;101328.91;16103766;19;130461;-47
2023/07/19 05:40:53;;;;;;;2.97;0.70;;;;;;;22.72;41.02;101326.41;16112122;19;133678;-43
2023/07/19 05:46:15;;;;;;;3.15;0.90;;;;;;;22.73;41.17;101332.81;16109364;19;130080;-46
2023/07/19 05:51:37;;;;;;;1.27;0.60;;;;;;;22.73;41.17;101339.25;16114475;19;130399;-45
2023/07/19 05:56:59;;;;;;;1.42;0.70;;;;;;;22.72;41.32;101331.13;16114091;19;129574;-42
2023/07/19 06:02:21;;;;;;;2.00;0.73;;;;;;;22.72;41.54;101342.28;16114878;19;130882;-44
2023/07/19 06:07:44;;;;;;;2.58;0.88;;;;;;;22.71;41.21;101341.44;16108002;19;130946;-47
2023/07/19 06:13:06;;;;;;;1.60;0.73;;;;;;;22.69;41.50;101342.81;16102185;19;129489;-44
2023/07/19 06:18:29;;;;;;;1.00;0.57;;;;;;;22.71;41.33;101344.25;16103882;19;131246;-45
2023/07/19 06:23:51;;;;;;;3.78;0.77;;;;;;;22.75;41.25;101341.75;16109153;19;130793;-42
2023/07/19 06:29:13;;;;;;;1.30;0.65;;;;;;;22.78;41.37;101330.06;16107422;19;131431;-42
2023/07/19 06:34:35;;;;;;;1.60;0.80;;;;;;;22.80;41.15;101344.59;16112855;19;130514;-44
2023/07/19 06:39:57;;;;;;;2.28;0.88;;;;;;;22.83;41.65;101337.66;16107377;19;131071;-43
2023/07/19 06:45:19;;;;;;;2.05;0.88;;;;;;;22.85;41.28;101335.44;16103042;19;130620;-42
2023/07/19 06:50:41;;;;;;;3.53;0.80;;;;;;;22.93;41.16;101337.75;16112265;19;129518;-42
2023/07/19 06:56:04;;;;;;;4.32;0.80;;;;;;;23.00;41.20;101337.53;16111322;19;130504;-44
2023/07/19 07:01:26;;;;;;;8.45;1.10;;;;;;;23.07;41.28;101343.75;16101650;19;133157;-45
2023/07/19 07:06:48;;;;;;;6.60;1.17;;;;;;;23.14;41.06;101337.94;16107514;19;129858;-49
2023/07/19 07:12:10;;;;;;;4.30;1.15;;;;;;;23.21;41.06;101344.13;16107146;19;129398;-46
2023/07/19 07:17:32;;;;;;;7.45;1.40;;;;;;;23.37;40.92;101341.47;16109886;19;134662;-45
2023/07/19 07:22:55;;;;;;;8.93;1.00;;;;;;;23.44;41.14;101334.53;16106412;19;131306;-45
2023/07/19 07:28:17;;;;;;;7.05;1.20;;;;;;;23.49;40.94;101336.50;16108907;19;129601;-42
2023/07/19 07:33:40;;;;;;;6.57;1.13;;;;;;;23.53;40.90;101337.63;16106774;19;130334;-48
2023/07/19 07:39:02;;;;;;;6.85;1.08;;;;;;;23.58;41.30;101343.28;16113051;19;131133;-44
2023/07/19 07:44:24;;;;;;;5.30;1.20;;;;;;;23.62;41.16;101340.78;16107400;19;129876;-42
2023/07/19 07:49:50;;;;;;;8.85;1.38;;;;;;;23.70;41.05;101345.84;16103065;19;130079;-43
2023/07/19 07:55:11;;;;;;;5.55;1.13;;;;;;;23.78;40.79;101336.13;16104980;19;130246;-44
2023/07/19 08:00:33;;;;;;;8.02;1.77;;;;;;;23.86;40.80;101331.97;16117288;19;131195;-47
2023/07/19 08:05:55;;;;;;;7.32;1.55;;;;;;;23.96;40.95;101329.22;16120965;19;130639;-47
2023/07/19 08:11:17;;;;;;;8.48;1.23;;;;;;;24.00;40.79;101326.72;16120491;19;132640;-43
2023/07/19 08:16:40;;;;;;;8.05;1.40;;;;;;;24.00;40.37;101324.78;16117666;19;129690;-44
2023/07/19 08:22:03;;;;;;;12.52;1.67;;;;;;;23.99;40.56;101325.88;16118995;19;129911;-44
2023/07/19 08:27:25;;;;;;;7.03;1.30;;;;;;;23.95;40.37;101322.78;16120643;19;129662;-45
2023/07/19 08:32:48;;;;;;;4.70;1.20;;;;;;;23.94;40.65;101335.09;16114205;19;130848;-46
2023/07/19 08:38:10;;;;;;;7.07;1.30;;;;;;;23.92;40.37;101325.31;16120531;19;130917;-44
2023/07/19 08:43:36;;;;;;;5.80;1.40;;;;;;;23.91;40.62;101329.22;16113339;19;129747;-43
2023/07/19 08:48:59;;;;;;;3.90;1.17;;;;;;;23.96;40.07;101329.22;16110465;19;130489;-49
2023/07/19 08:54:21;;;;;;;5.53;1.30;;;;;;;23.97;40.26;101326.16;16113269;19;132189;-47
2023/07/19 08:59:43;;;;;;;5.18;1.40;;;;;;;23.99;40.26;101319.47;16119130;19;130748;-49
2023/07/19 09:05:10;;;;;;;7.13;1.38;;;;;;;24.00;40.39;101321.16;16109483;19;130530;-46
2023/07/19 09:10:32;;;;;;;3.15;1.20;;;;;;;23.99;40.43;101319.47;16109817;19;129742;-44
2023/07/19 09:15:54;;;;;;;4.70;1.10;;;;;;;23.97;40.62;101322.50;16107671;19;129730;-46
2023/07/19 09:21:17;;;;;;;4.75;1.27;;;;;;;23.95;40.23;101320.00;16108962;19;130014;-47
2023/07/19 09:26:49;;;;;;;3.67;1.30;;;;;;;23.97;40.21;101314.97;16117275;19;130291;-49
2023/07/19 09:32:15;;;;;;;5.20;1.65;;;;;;;23.95;40.34;101319.16;16115568;19;130574;-50
2023/07/19 09:37:37;;;;;;;4.10;1.00;;;;;;;23.94;40.25;101323.91;16116299;19;130403;-48
2023/07/19 09:43:01;;;;;;;5.47;1.48;;;;;;;23.91;40.65;101316.06;16114639;19;130047;-50
2023/07/19 09:48:23;;;;;;;5.22;1.10;;;;;;;23.90;40.37;101317.16;16115512;19;130929;-50
2023/07/19 09:53:46;;;;;;;4.80;1.27;;;;;;;23.89;40.34;101315.50;16111318;19;132200;-48
2023/07/19 09:59:42;;;;;;;4.47;1.35;;;;;;;23.88;40.50;101319.41;16114320;19;130824;-52
2023/07/19 10:05:10;;;;;;;8.45;1.63;;;;;;;23.89;40.65;101321.09;16111459;19;129825;-46
2023/07/19 10:10:40;;;;;;;8.85;1.65;;;;;;;23.89;40.59;101315.50;16112456;19;129838;-45
2023/07/19 10:16:01;;;;;;;5.72;1.20;;;;;;;23.84;40.67;101318.28;16110887;19;130739;-50
2023/07/19 10:21:25;;;;;;;4.40;1.13;;;;;;;23.87;40.55;101314.94;16111395;19;129525;-52
2023/07/19 10:26:47;;;;;;;7.18;1.33;;;;;;;23.88;40.67;101316.59;16110514;19;129947;-46
2023/07/19 10:32:10;;;;;;;4.78;1.08;;;;;;;23.90;40.78;101313.56;16112294;19;130590;-47
2023/07/19 10:37:32;;;;;;;4.45;1.35;;;;;;;23.90;40.99;101310.75;16115436;19;130247;-49
2023/07/19 10:42:54;;;;;;;3.28;1.20;;;;;;;23.89;40.58;101309.91;16111597;19;129989;-46
2023/07/19 10:48:16;;;;;;;4.22;1.30;;;;;;;23.91;40.69;101306.84;16112700;19;129584;-47
2023/07/19 10:53:43;;;;;;;6.15;1.40;;;;;;;23.90;40.76;101306.00;16107085;19;130738;-44
2023/07/19 10:59:07;;;;;;;6.70;1.33;;;;;;;23.85;40.90;101308.78;16108676;19;130334;-46
2023/07/19 11:04:29;;;;;;;7.95;1.65;;;;;;;23.80;40.84;101322.72;16105800;19;131361;-45
2023/07/19 11:09:51;;;;;;;6.20;1.30;;;;;;;23.77;40.90;101338.09;16107007;19;129504;-45
2023/07/19 11:15:14;;;;;;;14.13;1.75;;;;;;;23.74;40.81;101340.59;16105241;19;131584;-46
2023/07/19 11:20:38;;;;;;;8.07;1.30;;;;;;;23.72;40.89;101346.44;16112039;19;130328;-47
2023/07/19 11:26:09;;;;;;;10.57;1.15;;;;;;;23.70;41.17;101342.22;16108809;19;129629;-46
2023/07/19 11:31:32;;;;;;;7.72;1.73;;;;;;;23.71;41.45;101346.72;16109589;19;129551;-45
2023/07/19 11:36:54;;;;;;;13.07;1.27;;;;;;;23.71;41.50;101330.78;16109242;19;130146;-44
2023/07/19 11:42:55;;;;;;;12.18;1.42;;;;;;;23.73;41.61;101333.31;16108712;19;130149;-44
2023/07/19 11:48:17;;;;;;;8.93;1.25;;;;;;;23.73;41.62;101331.34;16108448;19;129782;-44
2023/07/19 11:53:39;;;;;;;7.55;1.02;;;;;;;23.75;41.66;101326.34;16107308;19;129924;-49
2023/07/19 11:59:01;;;;;;;11.73;1.52;;;;;;;23.76;41.71;101328.03;16106484;19;130565;-43
2023/07/19 12:04:23;;;;;;;15.85;1.30;;;;;;;23.79;41.85;101321.03;16094645;19;130158;-45
2023/07/19 12:09:45;;;;;;;12.13;1.45;;;;;;;23.80;41.72;101311.56;16102580;19;131164;-44
2023/07/19 12:15:09;;;;;;;8.18;1.40;;;;;;;23.81;41.78;101316.03;16102943;19;129687;-43
2023/07/19 12:20:32;;;;;;;9.88;1.40;;;;;;;23.81;42.00;101308.50;16102314;19;129407;-46
2023/07/19 12:25:54;;;;;;;11.38;1.23;;;;;;;23.82;41.66;101303.75;16101045;19;132179;-43
2023/07/19 12:31:16;;;;;;;5.35;1.10;;;;;;;23.79;41.60;101301.47;16104176;19;129734;-44
2023/07/19 12:36:38;;;;;;;5.80;1.40;;;;;;;23.74;41.55;101312.66;16105771;19;134239;-45
2023/07/19 12:42:01;;;;;;;7.63;1.70;;;;;;;23.71;41.64;101324.38;16102410;19;131450;-47
2023/07/19 12:47:23;;;;;;;5.05;1.05;;;;;;;23.68;41.62;101339.72;16115760;19;130755;-43
2023/07/19 12:52:45;;;;;;;5.00;1.25;;;;;;;23.66;41.93;101339.97;16118811;19;129739;-43
2023/07/19 12:58:13;;;;;;;5.25;1.30;;;;;;;23.64;41.40;101338.56;16120087;19;134784;-44
2023/07/19 13:03:35;;;;;;;6.30;1.10;;;;;;;23.62;41.60;101336.06;16115305;19;130903;-48
2023/07/19 13:08:57;;;;;;;2.72;0.88;;;;;;;23.61;41.41;101333.53;16112786;19;129581;-43
2023/07/19 13:14:19;;;;;;;5.45;1.35;;;;;;;23.62;42.10;101336.06;16114914;19;131685;-47
2023/07/19 13:19:42;;;;;;;6.65;1.35;;;;;;;23.66;41.40;101326.00;16114364;19;129440;-44
2023/07/19 13:25:05;;;;;;;3.35;0.98;;;;;;;23.68;41.78;101328.56;16115841;19;129554;-43
2023/07/19 13:30:27;;;;;;;2.97;1.00;;;;;;;23.68;41.69;101324.91;16117019;19;129924;-47
2023/07/19 13:35:49;;;;;;;2.75;0.85;;;;;;;23.69;41.49;101332.16;16113021;19;130090;-48
2023/07/19 13:41:15;;;;;;;5.68;1.13;;;;;;;23.69;41.76;101323.78;16108345;19;130453;-45
2023/07/19 13:46:37;;;;;;;4.93;1.00;;;;;;;23.69;41.82;101321.84;16114194;19;130237;-45
2023/07/19 13:51:59;;;;;;;3.03;0.90;;;;;;;23.71;41.44;101329.94;16106858;19;130909;-45
2023/07/19 13:57:23;;;;;;;4.35;1.23;;;;;;;23.75;41.68;101319.91;16095073;19;131905;-49
2023/07/19 14:02:45;;;;;;;5.78;1.05;;;;;;;23.79;41.53;101315.44;16113313;19;129621;-49
2023/07/19 14:08:07;;;;;;;4.05;1.08;;;;;;;23.81;41.52;101313.22;16112228;19;130480;-49
2023/07/19 14:13:30;;;;;;;2.40;0.90;;;;;;;23.84;41.40;101312.69;16111497;19;131137;-45
2023/07/19 14:18:53;;;;;;;3.55;1.05;;;;;;;23.86;41.33;101310.47;16117917;19;132172;-48
2023/07/19 14:24:15;;;;;;;4.03;1.27;;;;;;;23.86;41.36;101313.25;16114984;19;130095;-47
2023/07/19 14:29:41;;;;;;;5.93;1.48;;;;;;;23.86;41.64;101318.84;16103942;19;130976;-46
2023/07/19 14:35:04;;;;;;;11.82;1.70;;;;;;;23.85;41.40;101319.09;16111227;19;129672;-49
2023/07/19 14:40:26;;;;;;;34.50;13.35;;;;;;;23.88;41.61;101322.19;16106956;19;129872;-44
2023/07/19 14:45:48;;;;;;;42.28;23.70;;;;;;;23.91;41.32;101324.44;16100690;19;133345;-45
2023/07/19 14:51:10;;;;;;;45.53;19.88;;;;;;;23.95;41.59;101324.72;16108733;19;131172;-51
2023/07/19 14:56:35;;;;;;;45.42;21.42;;;;;;;23.97;41.74;101320.56;16113503;19;130432;-53
2023/07/19 15:01:57;;;;;;;81.15;44.85;;;;;;;23.99;41.82;101320.28;16112659;19;129881;-53
2023/07/19 15:07:19;;;;;;;77.70;39.70;;;;;;;24.00;41.90;101330.34;16108247;19;130666;-50
2023/07/19 15:12:43;;;;;;;70.95;35.00;;;;;;;24.00;41.74;101326.72;16106548;19;131478;-53
2023/07/19 15:18:05;;;;;;;75.55;31.90;;;;;;;23.96;41.74;101332.88;16111623;19;130282;-53
2023/07/19 15:23:30;;;;;;;59.03;26.33;;;;;;;23.94;41.39;101340.66;16110343;19;129761;-47
2023/07/19 15:28:52;;;;;;;59.67;23.58;;;;;;;23.92;41.43;101328.94;16106788;19;130539;-43
2023/07/19 15:34:14;;;;;;;58.58;21.95;;;;;;;23.91;41.84;101330.03;16109329;19;130163;-49
2023/07/19 15:39:37;;;;;;;50.42;20.30;;;;;;;23.91;41.58;101318.84;16106566;19;131244;-46
2023/07/19 15:44:59;;;;;;;42.22;18.02;;;;;;;23.88;41.31;101324.16;16105353;19;129657;-50
2023/07/19 15:50:21;;;;;;;39.67;15.93;;;;;;;23.82;41.65;101320.50;16101865;19;131434;-49
2023/07/19 15:55:43;;;;;;;36.28;13.73;;;;;;;23.83;42.05;101336.16;16103350;19;130831;-51
2023/07/19 16:01:06;;;;;;;33.85;12.32;;;;;;;23.87;41.89;101322.47;16104226;19;130921;-45
2023/07/19 16:06:28;;;;;;;31.60;10.25;;;;;;;23.88;41.82;101319.41;16107380;19;130883;-54
2023/07/19 16:11:51;;;;;;;20.45;8.27;;;;;;;23.87;41.72;101334.50;16104646;19;129691;-54
2023/07/19 16:17:13;;;;;;;18.73;6.97;;;;;;;23.85;41.60;101331.16;16106435;19;129998;-53
2023/07/19 16:22:36;;;;;;;19.75;6.90;;;;;;;23.87;41.69;101342.88;16115674;19;130861;-53
2023/07/19 16:27:58;;;;;;;14.57;6.00;;;;;;;23.90;41.60;101333.94;16125688;19;129786;-48
2023/07/19 16:33:20;;;;;;;19.38;5.63;;;;;;;23.94;41.57;101351.00;16119581;19;129488;-50
2023/07/19 16:38:42;;;;;;;11.40;5.18;;;;;;;23.98;41.58;101346.56;16120167;19;129284;-52
2023/07/19 16:44:06;;;;;;;11.23;5.00;;;;;;;24.00;41.48;101351.88;16119554;19;129663;-54
2023/07/19 16:49:28;;;;;;;17.30;4.65;;;;;;;23.99;41.68;101355.78;16117126;19;131732;-56
2023/07/19 16:54:50;;;;;;;10.98;4.28;;;;;;;23.95;41.54;101353.53;16097933;19;130324;-55
2023/07/19 17:00:12;;;;;;;12.18;4.38;;;;;;;23.93;41.76;101355.75;16118770;19;130517;-54
2023/07/19 17:05:38;;;;;;;13.98;4.43;;;;;;;23.93;41.69;101341.78;16122600;19;132793;-55
2023/07/19 17:11:00;;;;;;;13.23;4.35;;;;;;;23.96;41.71;101338.44;16117409;19;130202;-56
2023/07/19 17:16:22;;;;;;;12.82;4.28;;;;;;;23.97;42.29;101331.75;16119025;19;129605;-53
2023/07/19 17:21:44;;;;;;;11.23;3.70;;;;;;;24.00;42.37;101335.13;16117620;19;131248;-57
2023/07/19 17:27:07;;;;;;;16.80;3.92;;;;;;;24.01;42.30;101336.78;16116711;19;130071;-58
2023/07/19 17:32:29;;;;;;;11.57;3.28;;;;;;;24.01;42.62;101342.38;16116891;19;130308;-56
2023/07/19 17:37:51;;;;;;;12.07;3.53;;;;;;;24.02;42.72;101335.66;16118438;19;130052;-56
2023/07/19 17:43:13;;;;;;;12.55;3.22;;;;;;;24.01;42.09;101339.56;16117971;19;133332;-54
2023/07/19 17:48:37;;;;;;;12.05;3.25;;;;;;;24.00;42.16;101335.94;16118165;19;130339;-56
2023/07/19 17:53:59;;;;;;;6.80;2.42;;;;;;;24.01;42.30;101333.97;16114372;19;130046;-51
2023/07/19 17:59:21;;;;;;;9.80;2.58;;;;;;;24.01;42.27;101337.63;16117061;19;130305;-49
2023/07/19 18:04:46;;;;;;;7.63;2.72;;;;;;;24.02;42.07;101347.69;16113372;19;130908;-50
2023/07/19 18:10:09;;;;;;;7.88;2.25;;;;;;;24.02;42.30;101346.84;16115927;19;131090;-46
2023/07/19 18:15:31;;;;;;;6.97;2.85;;;;;;;23.99;42.11;101339.03;16110106;19;129912;-51
2023/07/19 18:20:53;;;;;;;10.00;2.28;;;;;;;23.98;42.17;101338.16;16115341;19;130721;-50
2023/07/19 18:26:15;;;;;;;8.60;2.47;;;;;;;23.96;42.21;101335.66;16085236;19;130525;-54
2023/07/19 18:31:38;;;;;;;7.90;2.05;;;;;;;23.97;42.41;101342.94;16113760;19;129973;-49
2023/07/19 18:37:00;;;;;;;8.38;1.98;;;;;;;23.98;42.07;101346.56;16109667;19;129931;-52
2023/07/19 18:42:23;;;;;;;12.15;2.50;;;;;;;23.99;42.40;101336.22;16115294;19;130503;-55
2023/07/19 18:47:45;;;;;;;6.75;2.35;;;;;;;24.00;42.22;101343.50;16111206;19;129997;-53
2023/07/19 18:53:07;;;;;;;7.78;2.53;;;;;;;23.99;41.96;101347.41;16111393;19;129876;-54
2023/07/19 18:58:30;;;;;;;6.85;1.98;;;;;;;23.97;41.98;101342.94;16112157;19;130846;-44
2023/07/19 19:03:53;;;;;;;7.78;1.90;;;;;;;23.97;42.02;101342.94;16113566;19;129524;-53
2023/07/19 19:09:15;;;;;;;6.55;2.00;;;;;;;23.97;41.76;101330.91;16111434;19;129922;-50
2023/07/19 19:14:40;;;;;;;4.25;1.90;;;;;;;23.96;42.08;101341.25;16115051;19;130327;-46
2023/07/19 19:20:04;;;;;;;5.10;2.00;;;;;;;23.97;42.27;101344.88;16111965;19;130783;-51
2023/07/19 19:25:26;;;;;;;6.47;1.88;;;;;;;23.96;41.99;101349.63;16111389;19;130031;-51
2023/07/19 19:30:48;;;;;;;4.30;1.30;;;;;;;23.96;42.06;101355.22;16111001;19;131487;-50
2023/07/19 19:36:10;;;;;;;5.22;1.23;;;;;;;23.95;42.02;101356.34;16110847;19;129592;-51
2023/07/19 19:41:32;;;;;;;7.22;1.90;;;;;;;23.96;42.10;101357.16;16107886;19;130956;-52
2023/07/19 19:46:54;;;;;;;4.95;1.75;;;;;;;23.95;41.98;101352.69;16106152;19;130506;-49
2023/07/19 19:52:16;;;;;;;7.45;1.98;;;;;;;23.94;42.13;101351.84;16103957;19;130434;-50
2023/07/19 19:57:38;;;;;;;3.63;1.60;;;;;;;23.94;42.14;101351.00;16112602;19;129755;-48
2023/07/19 20:03:00;;;;;;;7.43;1.50;;;;;;;23.94;42.45;101353.78;16119622;19;131400;-48
2023/07/19 20:08:25;;;;;;;3.20;1.30;;;;;;;23.92;42.18;101358.84;16123849;19;129922;-49
2023/07/19 20:13:48;;;;;;;5.72;1.50;;;;;;;23.92;42.28;101365.25;16121540;19;131373;-46
2023/07/19 20:19:10;;;;;;;6.03;1.35;;;;;;;23.91;42.27;101371.94;16120136;19;131464;-56
2023/07/19 20:24:35;;;;;;;3.88;1.60;;;;;;;23.90;42.24;101373.06;16121612;19;131290;-48
2023/07/19 20:30:07;;;;;;;3.60;1.35;;;;;;;23.89;42.42;101378.94;16120929;19;129053;-50
2023/07/19 20:35:31;;;;;;;3.15;1.40;;;;;;;23.89;41.88;101399.31;16118192;19;129657;-45
2023/07/19 20:40:56;;;;;;;6.18;1.40;;;;;;;23.89;42.08;101393.72;16120766;19;130364;-46
2023/07/19 20:46:21;;;;;;;3.92;1.45;;;;;;;23.85;41.95;101381.44;16119118;19;129636;-53
2023/07/19 20:51:44;;;;;;;3.55;1.20;;;;;;;23.81;42.60;101385.88;16125088;19;129681;-51
2023/07/19 20:57:06;;;;;;;4.72;1.33;;;;;;;23.77;42.32;101384.72;16117388;19;130118;-54
2023/07/19 21:02:28;;;;;;;4.53;1.30;;;;;;;23.73;42.31;101380.81;16117261;19;129943;-53
2023/07/19 21:07:51;;;;;;;4.00;1.58;;;;;;;23.70;41.99;101384.13;16119855;19;130854;-53
2023/07/19 21:13:13;;;;;;;3.80;1.45;;;;;;;23.68;42.36;101376.03;16119072;19;129968;-49
2023/07/19 21:18:35;;;;;;;3.78;1.33;;;;;;;23.65;42.19;101366.22;16114556;19;130983;-54
2023/07/19 21:23:57;;;;;;;4.00;1.50;;;;;;;23.63;42.55;101365.66;16121282;19;130583;-51
2023/07/19 21:29:19;;;;;;;4.45;1.50;;;;;;;23.61;42.21;101370.69;16118006;19;133295;-50
2023/07/19 21:34:41;;;;;;;1.95;1.15;;;;;;;23.61;42.03;101375.41;16114636;19;130432;-49
2023/07/19 21:40:04;;;;;;;3.33;1.40;;;;;;;23.58;42.78;101376.81;16115434;19;130206;-52
2023/07/19 21:45:26;;;;;;;6.60;1.52;;;;;;;23.57;42.39;101379.84;16115415;19;131024;-51
2023/07/19 21:50:48;;;;;;;3.47;1.23;;;;;;;23.54;42.78;101375.63;16113237;19;131764;-54
2023/07/19 21:56:10;;;;;;;3.70;1.38;;;;;;;23.53;42.34;101373.09;16106913;19;129947;-48
2023/07/19 22:01:32;;;;;;;3.50;1.33;;;;;;;23.51;42.49;101376.16;16110646;19;129747;-49
2023/07/19 22:06:54;;;;;;;5.20;1.17;;;;;;;23.50;42.38;101380.09;16115760;19;129909;-55
2023/07/19 22:12:16;;;;;;;3.97;1.00;;;;;;;23.48;42.51;101376.72;16116680;19;130122;-53
2023/07/19 22:17:38;;;;;;;3.05;1.10;;;;;;;23.47;42.54;101375.84;16109651;19;129558;-51
2023/07/19 22:23:00;;;;;;;3.22;1.23;;;;;;;23.45;42.53;101371.66;16113427;19;130864;-50
2023/07/19 22:28:22;;;;;;;4.60;1.33;;;;;;;23.43;42.86;101369.16;16108928;19;130568;-49
2023/07/19 22:33:44;;;;;;;3.58;1.17;;;;;;;23.43;42.47;101371.06;16116757;19;129434;-53
2023/07/19 22:39:07;;;;;;;3.25;1.30;;;;;;;23.41;42.58;101374.16;16115416;19;130308;-51
2023/07/19 22:44:29;;;;;;;3.38;1.50;;;;;;;23.40;42.86;101383.63;16109734;19;131193;-51
2023/07/19 22:49:51;;;;;;;4.05;1.17;;;;;;;23.39;42.50;101383.88;16105739;19;130680;-50
2023/07/19 22:55:13;;;;;;;3.67;1.20;;;;;;;23.37;42.62;101386.13;16108605;19;130483;-50
2023/07/19 23:00:34;;;;;;;3.67;1.33;;;;;;;23.35;42.62;101378.00;16110119;19;129705;-52
2023/07/19 23:05:56;;;;;;;4.13;1.23;;;;;;;23.34;42.62;101382.75;16111517;19;130508;-46
2023/07/19 23:11:18;;;;;;;3.40;0.88;;;;;;;23.33;42.63;101378.28;16106883;19;130372;-52
2023/07/19 23:16:43;;;;;;;5.95;1.10;;;;;;;23.32;42.54;101379.38;16106890;19;130525;-52
2023/07/19 23:22:05;;;;;;;2.10;1.00;;;;;;;23.30;42.68;101384.38;16107677;19;130757;-48
2023/07/19 23:27:27;;;;;;;3.05;1.13;;;;;;;23.30;42.65;101372.41;16101671;19;130398;-49
2023/07/19 23:32:50;;;;;;;5.85;1.15;;;;;;;23.28;42.69;101372.66;16095162;19;130696;-51
2023/07/19 23:38:12;;;;;;;2.95;1.00;;;;;;;23.28;42.63;101363.44;16102579;19;129902;-50
2023/07/19 23:43:34;;;;;;;4.22;1.23;;;;;;;23.26;42.91;101372.09;16100284;19;129861;-52
2023/07/19 23:48:56;;;;;;;1.50;1.00;;;;;;;23.24;42.44;101360.34;16106754;19;130068;-53
2023/07/19 23:54:18;;;;;;;1.88;0.80;;;;;;;23.25;42.70;101377.94;16099791;19;130239;-52
2023/07/19 23:59:40;;;;;;;2.47;1.20;;;;;;;23.24;42.57;101371.50;16102660;19;129479;-48
